createdAt,value
2023-08-15T00:21:35.723Z,4.13
2023-08-15T00:22:37.626Z,3.83
2023-08-15T00:23:39.622Z,4.22
2023-08-15T00:24:41.681Z,3.55
2023-08-15T00:25:44.034Z,3.97
2023-08-15T00:27:47.744Z,3.90
2023-08-15T00:28:49.641Z,3.53
2023-08-15T00:29:51.645Z,4.15
2023-08-15T02:13:35.115Z,4.43
2023-08-15T02:14:37.095Z,4.30
2023-08-15T02:15:39.004Z,4.25
2023-08-15T02:16:40.998Z,4.43
2023-08-15T03:10:26.981Z,3.92
2023-08-15T03:11:30.818Z,4.05
2023-08-15T03:12:32.740Z,4.10
2023-08-15T03:13:34.742Z,4.32
2023-08-15T03:14:36.802Z,4.55
2023-08-15T03:15:39.198Z,4.28
2023-08-15T03:16:41.302Z,4.50
2023-08-15T03:17:44.191Z,4.80
2023-08-15T03:18:46.179Z,4.15
2023-08-15T03:19:48.162Z,4.00
2023-08-15T03:21:00.690Z,4.05
2023-08-15T03:22:02.698Z,4.30
2023-08-15T03:23:04.847Z,3.95
2023-08-15T03:24:07.159Z,4.68
2023-08-15T03:26:11.507Z,4.55
2023-08-15T03:27:13.567Z,5.03
2023-08-15T03:28:15.475Z,4.50
2023-08-15T03:29:17.425Z,4.43
2023-08-15T03:30:19.500Z,3.85
2023-08-15T03:31:22.705Z,4.38
2023-08-15T03:32:24.670Z,4.32
2023-08-15T03:33:27.261Z,4.40
2023-08-15T03:34:29.301Z,4.57
2023-08-15T03:35:31.574Z,4.72
2023-08-15T03:37:36.840Z,4.30
2023-08-15T03:38:38.816Z,4.30
2023-08-15T03:39:40.756Z,4.68
2023-08-15T03:40:43.344Z,4.40
2023-08-15T03:41:46.574Z,4.07
2023-08-15T03:42:48.561Z,4.00
2023-08-15T03:43:50.619Z,4.32
2023-08-15T03:44:52.628Z,4.40
2023-08-15T03:45:54.621Z,4.72
2023-08-15T03:46:56.649Z,4.53
2023-08-15T03:47:58.627Z,4.30
2023-08-15T03:49:00.654Z,4.57
2023-08-15T03:50:03.271Z,4.70
2023-08-15T03:51:05.565Z,3.95
2023-08-15T03:53:10.950Z,4.28
2023-08-15T03:54:13.168Z,4.40
2023-08-15T03:55:15.226Z,4.50
2023-08-15T03:56:17.114Z,4.35
2023-08-15T03:57:19.392Z,4.18
2023-08-15T03:58:22.880Z,4.75
2023-08-15T03:59:24.922Z,4.32
2023-08-15T04:00:26.965Z,4.20
2023-08-15T04:01:28.982Z,4.53
2023-08-15T04:02:30.957Z,4.35
2023-08-15T04:03:33.015Z,4.05
2023-08-15T04:04:34.900Z,4.55
2023-08-15T04:05:36.798Z,4.68
2023-08-15T04:22:14.609Z,4.35
2023-08-15T05:43:00.660Z,4.45
2023-08-15T05:44:02.780Z,4.80
2023-08-15T05:45:05.088Z,4.50
2023-08-15T05:47:09.030Z,4.80
2023-08-15T05:48:12.387Z,4.45
2023-08-15T05:49:14.663Z,4.70
2023-08-15T05:50:16.653Z,4.85
2023-08-15T05:58:32.947Z,4.80
2023-08-15T05:59:34.915Z,4.40
2023-08-15T07:03:58.088Z,4.30
2023-08-15T07:06:02.128Z,4.47
2023-08-15T07:08:06.822Z,4.18
2023-08-15T07:09:08.925Z,4.30
2023-08-15T07:10:11.841Z,4.93
2023-08-15T07:11:13.871Z,4.18
2023-08-15T07:12:19.774Z,4.03
2023-08-15T07:13:22.158Z,4.07
2023-08-15T07:14:27.282Z,3.95
2023-08-15T07:15:29.503Z,4.10
2023-08-15T07:16:31.475Z,4.43
2023-08-15T07:17:33.661Z,4.38
2023-08-15T07:18:35.765Z,4.03
2023-08-15T07:19:37.863Z,4.63
2023-08-15T07:20:40.654Z,4.13
2023-08-15T07:21:42.935Z,4.38
2023-08-15T07:22:45.608Z,4.57
2023-08-15T07:23:47.563Z,4.95
2023-08-15T07:24:49.598Z,4.07
2023-08-15T07:25:51.612Z,3.88
2023-08-15T07:26:53.760Z,4.13
2023-08-15T07:28:58.033Z,4.20
2023-08-15T07:30:00.160Z,3.92
2023-08-15T07:31:02.075Z,3.90
2023-08-15T07:32:04.325Z,3.85
2023-08-15T07:33:07.896Z,3.75
2023-08-15T07:35:11.550Z,4.25
2023-08-15T07:36:13.637Z,4.05
2023-08-15T07:37:16.999Z,3.80
2023-08-15T07:38:19.266Z,4.00
2023-08-15T07:40:23.866Z,4.28
2023-08-15T07:41:25.798Z,3.88
2023-08-15T07:42:30.572Z,4.10
2023-08-15T07:43:32.853Z,3.95
2023-08-15T07:45:36.769Z,3.60
2023-08-15T07:46:39.014Z,3.95
2023-08-15T07:47:41.089Z,4.00
2023-08-15T07:48:44.461Z,3.90
2023-08-15T07:49:46.372Z,3.75
2023-08-15T07:50:48.376Z,4.28
2023-08-15T07:51:50.344Z,3.90
2023-08-15T07:52:52.364Z,4.53
2023-08-15T07:53:54.290Z,3.75
2023-08-15T07:54:56.197Z,3.80
2023-08-15T07:55:59.103Z,3.75
2023-08-15T07:57:01.064Z,4.57
2023-08-15T07:58:03.104Z,3.80
2023-08-15T07:59:05.303Z,4.13
2023-08-15T08:01:10.727Z,4.18
2023-08-15T08:02:12.596Z,3.97
2023-08-15T08:03:14.576Z,4.15
2023-08-15T08:04:16.545Z,3.70
2023-08-15T08:05:18.529Z,4.05
2023-08-15T08:06:37.765Z,3.85
2023-08-15T08:07:43.432Z,4.10
2023-08-15T08:08:45.546Z,3.85
2023-08-15T08:09:47.583Z,3.67
2023-08-15T08:10:49.468Z,3.88
2023-08-15T08:11:51.473Z,4.38
2023-08-15T08:12:53.466Z,3.90
2023-08-15T08:13:55.676Z,3.70
2023-08-15T08:16:04.309Z,3.70
2023-08-15T08:17:06.398Z,4.23
2023-08-15T08:32:43.472Z,3.90
2023-08-15T08:34:47.209Z,3.47
2023-08-15T08:35:49.232Z,4.00
2023-08-15T08:38:55.409Z,3.70
2023-08-15T12:55:52.766Z,3.28
2023-08-15T12:56:54.748Z,3.13
2023-08-15T12:58:58.840Z,3.30
2023-08-15T13:00:00.726Z,3.42
2023-08-15T13:01:02.936Z,3.50
2023-08-15T13:02:05.166Z,3.38
2023-08-15T13:04:13.598Z,3.33
2023-08-15T13:05:15.540Z,3.08
2023-08-15T13:06:17.581Z,3.20
2023-08-15T13:08:22.703Z,3.20
2023-08-15T13:09:24.883Z,2.90
2023-08-15T13:10:26.917Z,3.40
2023-08-15T13:11:29.018Z,3.33
2023-08-15T13:13:32.812Z,2.90
2023-08-15T13:14:34.807Z,2.72
2023-08-15T13:16:39.196Z,2.80
2023-08-15T13:17:41.950Z,3.05
2023-08-15T13:18:45.568Z,3.08
2023-08-15T13:20:49.256Z,2.80
2023-08-15T13:21:51.160Z,3.08
2023-08-15T13:22:55.063Z,3.53
2023-08-15T13:23:57.551Z,3.03
2023-08-15T13:24:59.738Z,3.17
2023-08-15T13:26:01.904Z,2.95
2023-08-15T13:28:06.076Z,3.05
2023-08-15T13:29:08.323Z,3.42
2023-08-15T13:30:10.549Z,3.40
2023-08-15T13:32:14.460Z,3.20
2023-08-15T13:34:21.522Z,3.15
2023-08-15T13:35:23.458Z,2.88
2023-08-15T13:36:25.414Z,2.88
2023-08-15T13:37:27.268Z,2.80
2023-08-15T13:38:29.158Z,2.85
2023-08-15T13:39:31.303Z,3.20
2023-08-15T13:40:33.117Z,4.00
2023-08-15T13:41:35.072Z,2.83
2023-08-15T13:42:39.682Z,3.38
2023-08-15T13:43:41.922Z,3.13
2023-08-15T13:44:43.898Z,2.83
2023-08-15T13:45:46.114Z,3.13
2023-08-15T13:46:48.214Z,3.15
2023-08-15T13:48:52.282Z,3.53
2023-08-15T13:49:54.311Z,2.90
2023-08-15T13:51:58.981Z,2.65
2023-08-15T13:54:06.100Z,2.63
2023-08-15T13:55:08.847Z,2.78
2023-08-15T13:56:11.429Z,3.20
2023-08-15T13:57:13.412Z,3.13
2023-08-15T13:59:17.207Z,2.58
2023-08-15T14:00:19.326Z,3.03
2023-08-15T14:01:21.714Z,2.80
2023-08-15T14:02:24.155Z,2.97
2023-08-15T14:03:30.966Z,2.40
2023-08-15T14:04:33.037Z,3.22
2023-08-15T14:06:38.741Z,2.58
2023-08-15T14:07:41.855Z,2.80
2023-08-15T14:08:43.832Z,2.42
2023-08-15T14:09:45.924Z,2.83
2023-08-15T14:10:48.229Z,2.95
2023-08-15T14:11:50.385Z,2.80
2023-08-15T14:12:52.426Z,2.80
2023-08-15T14:14:56.130Z,2.42
2023-08-15T14:15:58.234Z,2.25
2023-08-15T14:17:00.226Z,2.40
2023-08-15T14:19:04.226Z,2.58
2023-08-15T14:21:13.378Z,2.70
2023-08-15T14:22:17.311Z,2.60
2023-08-15T14:23:19.440Z,3.10
2023-08-15T14:24:22.022Z,2.47
2023-08-15T14:25:24.692Z,2.72
2023-08-15T14:26:26.842Z,2.60
2023-08-15T14:27:28.904Z,2.75
2023-08-15T14:29:32.773Z,2.65
2023-08-15T14:30:34.778Z,3.15
2023-08-15T14:32:38.806Z,3.00
2023-08-15T14:34:42.558Z,3.10
2023-08-15T14:36:49.755Z,2.97
2023-08-15T14:37:52.068Z,3.05
2023-08-15T14:38:54.894Z,2.97
2023-08-15T14:39:56.917Z,2.80
2023-08-15T14:42:01.435Z,3.17
2023-08-15T14:43:04.708Z,2.53
2023-08-15T14:44:07.238Z,3.00
2023-08-15T14:45:09.668Z,2.92
2023-08-15T14:46:11.620Z,2.75
2023-08-15T14:47:15.720Z,2.75
2023-08-15T14:48:17.710Z,2.88
2023-08-15T14:50:21.531Z,2.95
2023-08-15T14:52:27.007Z,2.80
2023-08-15T14:53:29.312Z,2.70
2023-08-15T14:54:31.258Z,2.50
2023-08-15T14:55:33.903Z,2.60
2023-08-15T14:56:35.930Z,2.90
2023-08-15T14:58:39.878Z,2.72
2023-08-15T15:00:49.033Z,3.20
2023-08-15T15:01:52.788Z,2.70
2023-08-15T15:02:54.939Z,2.90
2023-08-15T15:03:57.295Z,2.90
2023-08-15T15:04:59.235Z,3.30
2023-08-15T15:06:01.139Z,3.15
2023-08-15T15:08:05.604Z,3.40
2023-08-15T15:09:07.521Z,3.13
2023-08-15T15:10:09.888Z,3.25
2023-08-15T15:11:11.764Z,3.38
2023-08-15T15:12:13.776Z,3.30
2023-08-15T15:18:30.179Z,3.20
2023-08-15T15:19:33.942Z,3.08
2023-08-15T15:20:35.892Z,3.72
2023-08-15T15:22:39.933Z,3.00
2023-08-15T15:24:44.359Z,3.17
2023-08-15T15:25:47.650Z,3.17
2023-08-15T15:26:50.575Z,3.60
2023-08-15T15:27:52.547Z,3.83
2023-08-15T15:29:57.467Z,3.78
2023-08-15T15:30:59.402Z,3.97
2023-08-15T15:32:01.400Z,4.85
2023-08-15T15:33:03.601Z,3.85
2023-08-15T15:35:07.775Z,3.92
2023-08-15T15:37:14.693Z,3.97
2023-08-15T15:38:16.696Z,3.92
2023-08-15T15:40:20.590Z,4.10
2023-08-15T15:42:24.514Z,4.10
2023-08-15T15:43:27.010Z,4.13
2023-08-15T15:44:30.929Z,4.22
2023-08-15T15:45:33.883Z,4.22
2023-08-15T15:46:48.848Z,4.00
2023-08-15T15:47:51.118Z,3.83
2023-08-15T15:48:53.285Z,4.38
2023-08-15T15:50:57.161Z,4.07
2023-08-15T15:52:00.052Z,3.97
2023-08-15T15:53:02.522Z,4.53
2023-08-15T15:54:05.026Z,4.25
2023-08-15T15:55:10.138Z,3.90
2023-08-15T15:56:12.406Z,4.55
2023-08-15T15:57:14.512Z,4.25
2023-08-15T15:59:18.298Z,4.20
2023-08-15T16:00:21.925Z,4.32
2023-08-15T16:01:24.226Z,4.18
2023-08-15T16:02:26.223Z,4.95
2023-08-15T16:03:28.278Z,4.07
2023-08-15T16:05:32.442Z,4.25
2023-08-15T16:06:34.458Z,4.30
2023-08-15T16:08:38.282Z,4.63
2023-08-15T16:09:40.177Z,4.32
2023-08-15T16:10:45.325Z,4.90
2023-08-15T16:11:47.842Z,4.32
2023-08-15T16:12:50.543Z,5.00
2023-08-15T16:13:54.648Z,4.30
2023-08-15T16:14:56.639Z,4.85
2023-08-15T16:15:58.583Z,4.30
2023-08-15T16:17:00.588Z,4.18
2023-08-15T16:18:02.652Z,4.13
2023-08-15T16:20:11.451Z,4.50
2023-08-15T16:21:13.420Z,4.85
2023-08-15T16:22:15.606Z,4.07
2023-08-15T16:23:17.700Z,4.40
2023-08-15T16:25:21.543Z,4.50
2023-08-15T16:27:25.126Z,4.70
2023-08-15T16:43:19.429Z,5.00
2023-08-15T16:46:25.420Z,5.13
2023-08-15T16:47:27.484Z,4.55
2023-08-15T16:48:30.150Z,4.88
2023-08-15T16:49:32.480Z,4.88
2023-08-15T16:50:34.378Z,5.00
2023-08-15T16:57:53.090Z,4.90
2023-08-15T16:58:56.056Z,4.45
2023-08-15T16:59:58.707Z,5.15
2023-08-15T17:01:01.099Z,4.93
2023-08-15T17:02:03.294Z,4.45
2023-08-15T17:04:07.750Z,5.32
2023-08-15T17:06:13.758Z,4.47
2023-08-15T17:07:16.869Z,5.38
2023-08-15T17:08:19.361Z,5.40
2023-08-15T17:09:21.568Z,4.60
2023-08-15T17:11:26.202Z,4.88
2023-08-15T17:12:28.605Z,5.15
2023-08-15T17:13:31.604Z,5.18
2023-08-15T17:14:34.125Z,5.63
2023-08-15T17:15:36.635Z,4.70
2023-08-15T17:16:39.137Z,5.30
2023-08-15T17:17:42.180Z,4.90
2023-08-15T17:18:44.413Z,5.05
2023-08-15T17:21:53.997Z,4.68
2023-08-15T17:22:56.580Z,5.35
2023-08-15T17:23:59.173Z,4.82
2023-08-15T17:25:02.520Z,5.85
2023-08-15T17:26:04.790Z,4.70
2023-08-15T17:27:07.850Z,5.22
2023-08-15T17:28:09.832Z,5.05
2023-08-15T17:29:12.202Z,5.43
2023-08-15T17:30:18.195Z,5.53
2023-08-15T17:31:22.556Z,5.18
2023-08-15T17:38:38.193Z,5.20
2023-08-15T18:05:42.344Z,5.85
2023-08-15T18:07:47.097Z,6.30
2023-08-15T18:08:49.268Z,5.85
2023-08-15T18:10:53.507Z,5.60
2023-08-15T18:11:56.168Z,5.60
2023-08-15T18:12:58.674Z,5.22
2023-08-15T18:14:02.093Z,5.65
2023-08-15T18:15:04.281Z,5.20
2023-08-15T18:17:11.471Z,5.63
2023-08-15T18:18:14.000Z,5.45
2023-08-15T18:19:21.444Z,5.18
2023-08-15T18:20:23.986Z,5.53
2023-08-15T18:21:26.070Z,5.40
2023-08-15T18:22:28.623Z,5.43
2023-08-15T18:23:31.051Z,5.68
2023-08-15T18:24:33.425Z,5.18
2023-08-15T18:25:35.818Z,6.38
2023-08-15T18:26:39.763Z,5.72
2023-08-15T18:27:42.285Z,5.32
2023-08-15T18:28:47.653Z,5.43
2023-08-15T18:41:16.762Z,5.80
2023-08-15T18:42:19.290Z,5.82
2023-08-15T18:43:22.034Z,5.97
2023-08-15T18:44:24.585Z,6.20
2023-08-15T18:45:27.477Z,5.47
2023-08-15T18:47:32.888Z,5.88
2023-08-15T18:48:35.459Z,5.45
2023-08-15T18:49:37.692Z,5.70
2023-08-15T18:51:45.976Z,5.85
2023-08-15T18:52:49.025Z,5.57
2023-08-15T18:53:52.081Z,5.80
2023-08-15T18:54:54.762Z,5.85
2023-08-15T18:55:57.198Z,6.07
2023-08-15T18:56:59.751Z,5.55
2023-08-15T18:58:02.147Z,6.03
2023-08-15T18:59:04.520Z,5.65
2023-08-15T19:00:08.934Z,5.53
2023-08-15T19:01:13.122Z,5.53
2023-08-15T19:02:15.886Z,5.75
2023-08-15T19:04:22.506Z,6.10
2023-08-15T19:06:26.461Z,6.32
2023-08-15T19:07:29.166Z,6.03
2023-08-15T19:08:31.700Z,5.78
2023-08-15T19:09:34.301Z,5.93
2023-08-15T19:10:37.126Z,5.68
2023-08-15T19:11:39.652Z,6.18
2023-08-15T19:12:41.985Z,5.13
2023-08-15T19:13:44.465Z,5.20
2023-08-15T19:14:47.881Z,5.30
2023-08-15T19:15:50.306Z,5.30
2023-08-15T19:16:53.206Z,4.82
2023-08-15T19:17:56.143Z,4.72
2023-08-15T19:19:04.098Z,4.95
2023-08-15T19:20:06.884Z,4.50
2023-08-15T19:21:09.222Z,4.50
2023-08-15T19:22:11.992Z,4.72
2023-08-15T19:23:14.366Z,4.68
2023-08-15T19:24:17.201Z,4.57
2023-08-15T19:25:19.664Z,4.28
2023-08-15T19:26:22.123Z,4.40
2023-08-15T19:27:24.873Z,5.13
2023-08-15T19:28:28.882Z,4.45
2023-08-15T19:29:31.504Z,5.20
2023-08-15T19:30:34.545Z,5.35
2023-08-15T19:31:37.397Z,5.45
2023-08-15T19:32:40.011Z,5.80
2023-08-15T19:33:42.814Z,5.45
2023-08-15T19:34:50.692Z,5.43
2023-08-15T19:35:52.878Z,5.45
2023-08-15T19:37:57.136Z,4.88
2023-08-15T19:38:59.498Z,4.30
2023-08-15T19:40:02.190Z,4.22
2023-08-15T19:41:04.679Z,4.05
2023-08-15T19:42:07.560Z,3.75
2023-08-15T19:43:10.424Z,3.47
2023-08-15T19:44:12.743Z,2.38
2023-08-15T19:45:16.011Z,2.58
2023-08-15T19:46:18.390Z,2.88
2023-08-15T19:47:20.828Z,2.90
2023-08-15T19:48:23.468Z,3.25
2023-08-15T19:49:26.329Z,3.45
2023-08-15T19:50:30.253Z,3.60
2023-08-15T19:51:32.765Z,2.80
2023-08-15T19:52:36.522Z,2.10
2023-08-15T19:53:38.944Z,2.30
2023-08-15T19:54:41.158Z,2.08
2023-08-15T19:56:45.482Z,2.30
2023-08-15T19:57:48.311Z,2.10
2023-08-15T19:58:50.854Z,1.85
2023-08-15T19:59:53.188Z,1.70
2023-08-15T20:00:55.401Z,1.83
2023-08-15T20:03:00.219Z,1.55
2023-08-15T20:04:02.539Z,1.80
2023-08-15T20:06:06.956Z,1.90
2023-08-15T20:08:14.321Z,1.88
2023-08-15T20:09:16.672Z,1.80
2023-08-15T20:10:19.228Z,2.83
2023-08-15T20:11:21.118Z,2.40
2023-08-15T20:12:23.467Z,2.65
2023-08-15T20:13:26.500Z,2.80
2023-08-15T20:14:29.186Z,2.45
2023-08-15T20:15:31.732Z,2.85
2023-08-15T20:16:33.987Z,2.80
2023-08-15T20:17:36.538Z,3.05
2023-08-15T20:18:38.907Z,2.55
2023-08-15T20:19:41.047Z,2.40
2023-08-15T20:20:43.799Z,2.55
2023-08-15T20:21:46.432Z,2.40
2023-08-15T20:22:48.523Z,2.55
2023-08-15T20:23:50.540Z,2.47
2023-08-15T20:24:52.812Z,2.20
2023-08-15T20:25:54.784Z,2.40
2023-08-15T20:26:57.165Z,2.40
2023-08-15T20:27:59.730Z,2.47
2023-08-15T20:29:02.102Z,2.70
2023-08-15T20:31:07.637Z,2.47
2023-08-15T20:32:09.716Z,2.22
2023-08-15T20:33:11.875Z,2.58
2023-08-15T20:34:14.283Z,2.33
2023-08-15T20:35:17.510Z,2.50
2023-08-15T20:36:20.742Z,2.40
2023-08-15T20:37:22.752Z,2.33
2023-08-15T20:38:25.024Z,2.53
2023-08-15T20:40:30.066Z,2.92
2023-08-15T20:41:32.338Z,2.70
2023-08-15T20:43:36.267Z,3.00
2023-08-15T20:44:38.483Z,2.60
2023-08-15T20:46:42.847Z,2.80
2023-08-15T20:47:44.884Z,2.90
2023-08-15T20:48:46.828Z,2.90
2023-08-15T20:49:48.868Z,2.65
2023-08-15T20:50:50.753Z,3.05
2023-08-15T20:51:52.710Z,3.10
2023-08-15T20:52:56.083Z,2.47
2023-08-15T20:53:58.210Z,3.15
2023-08-15T20:55:00.359Z,2.70
2023-08-15T20:56:02.896Z,2.88
2023-08-15T20:57:05.420Z,2.75
2023-08-15T20:58:07.390Z,2.40
2023-08-15T20:59:09.308Z,2.72
2023-08-15T21:00:11.829Z,2.60
2023-08-15T21:01:13.848Z,2.20
2023-08-15T21:02:16.134Z,2.15
2023-08-15T21:04:19.823Z,2.88
2023-08-15T21:05:21.826Z,3.00
2023-08-15T21:06:24.006Z,2.42
2023-08-15T21:07:25.992Z,2.65
2023-08-15T21:08:28.083Z,2.55
2023-08-15T21:09:30.138Z,2.25
2023-08-15T21:10:32.088Z,2.80
2023-08-15T21:11:33.940Z,2.30
2023-08-15T21:12:36.020Z,2.38
2023-08-15T21:13:37.934Z,2.70
2023-08-15T21:14:39.850Z,2.10
2023-08-15T21:15:41.769Z,2.15
2023-08-15T21:16:43.971Z,2.20
2023-08-15T21:18:47.934Z,2.28
2023-08-15T21:19:49.867Z,2.30
2023-08-15T21:20:52.132Z,2.53
2023-08-15T21:22:55.894Z,2.13
2023-08-15T21:23:57.879Z,2.47
2023-08-15T21:25:01.125Z,1.83
2023-08-15T21:26:03.539Z,2.55
2023-08-15T21:27:05.540Z,2.47
2023-08-15T21:28:07.486Z,2.05
2023-08-15T21:31:13.843Z,2.13
2023-08-15T21:32:15.892Z,2.30
2023-08-15T21:33:19.096Z,2.38
2023-08-15T21:34:21.022Z,2.28
2023-08-15T21:36:24.739Z,2.20
2023-08-15T21:37:26.713Z,2.00
2023-08-15T21:38:28.655Z,2.30
2023-08-15T21:39:30.812Z,1.88
2023-08-15T21:40:33.028Z,2.63
2023-08-15T21:41:35.055Z,2.28
2023-08-15T21:42:37.638Z,2.35
2023-08-15T21:43:39.684Z,1.80
2023-08-15T21:44:41.690Z,2.20
2023-08-15T21:45:44.007Z,2.50
2023-08-15T21:47:48.198Z,2.00
2023-08-15T21:48:50.038Z,2.50
2023-08-15T21:49:53.665Z,2.35
2023-08-15T21:50:56.736Z,2.20
2023-08-15T21:51:58.660Z,2.30
2023-08-15T21:53:00.634Z,2.60
2023-08-15T21:54:02.564Z,2.40
2023-08-15T21:55:04.758Z,2.70
2023-08-15T21:57:08.671Z,2.72
2023-08-15T21:58:11.141Z,2.88
2023-08-15T21:59:13.138Z,2.22
2023-08-15T22:00:16.055Z,2.20
2023-08-15T22:01:18.286Z,2.20
2023-08-15T22:03:22.528Z,2.58
2023-08-15T22:06:28.735Z,2.10
2023-08-15T22:07:30.789Z,2.50
2023-08-15T22:08:32.692Z,2.38
2023-08-15T22:09:34.615Z,2.22
2023-08-15T22:10:36.861Z,2.13
2023-08-15T22:12:40.666Z,2.15
2023-08-15T22:13:42.596Z,1.88
2023-08-15T22:14:44.481Z,2.47
2023-08-15T22:15:46.417Z,2.30
2023-08-15T22:16:48.639Z,2.90
2023-08-15T22:19:06.518Z,2.65
2023-08-15T22:20:09.796Z,2.40
2023-08-15T22:21:11.945Z,2.45
2023-08-15T22:22:13.915Z,2.28
2023-08-15T22:23:16.173Z,2.65
2023-08-15T22:25:21.630Z,2.70
2023-08-15T22:26:23.513Z,2.25
2023-08-15T22:27:26.867Z,2.15
2023-08-15T22:28:28.733Z,2.15
2023-08-15T22:29:30.759Z,2.53
2023-08-15T22:30:32.830Z,2.45
2023-08-15T22:31:34.773Z,2.20
2023-08-15T22:32:36.894Z,2.58
2023-08-15T22:33:38.814Z,2.25
2023-08-15T22:34:40.712Z,2.13
2023-08-15T22:35:43.874Z,2.20
2023-08-15T22:36:46.236Z,2.67
2023-08-15T22:38:50.637Z,2.40
2023-08-15T22:39:52.786Z,2.40
2023-08-15T22:40:54.735Z,2.30
2023-08-15T22:41:56.640Z,2.55
2023-08-15T22:42:58.537Z,2.30
2023-08-15T22:44:00.474Z,2.17
2023-08-15T22:45:02.435Z,2.15
2023-08-15T22:46:04.661Z,2.45
2023-08-15T22:47:06.990Z,2.22
2023-08-15T22:48:09.252Z,2.30
2023-08-15T22:50:16.290Z,2.50
2023-08-15T22:51:18.837Z,2.35
2023-08-15T22:52:20.941Z,2.25
2023-08-15T22:53:22.826Z,2.80
2023-08-15T22:54:25.143Z,2.50
2023-08-15T22:56:30.762Z,2.42
2023-08-15T22:58:34.732Z,2.30
2023-08-15T22:59:36.936Z,3.38
2023-08-15T23:01:41.039Z,2.25
2023-08-15T23:02:43.954Z,2.28
2023-08-15T23:03:46.053Z,2.30
2023-08-15T23:04:48.110Z,2.05
2023-08-15T23:05:50.552Z,2.20
2023-08-15T23:06:52.491Z,2.35
2023-08-15T23:07:54.562Z,2.20
2023-08-15T23:08:56.498Z,2.67
2023-08-15T23:09:58.340Z,2.50
2023-08-15T23:11:00.435Z,2.40
2023-08-15T23:12:03.532Z,2.53
2023-08-15T23:13:05.641Z,2.42
2023-08-15T23:14:07.817Z,2.45
2023-08-15T23:15:09.937Z,1.80
2023-08-15T23:16:12.077Z,2.25
2023-08-15T23:17:14.079Z,2.33
2023-08-15T23:18:16.163Z,2.20
2023-08-15T23:19:18.018Z,2.20
2023-08-15T23:20:20.039Z,2.33
2023-08-15T23:21:21.966Z,2.38
2023-08-15T23:22:24.053Z,2.15
2023-08-15T23:23:25.980Z,2.22
2023-08-15T23:24:28.039Z,2.20
2023-08-15T23:25:29.962Z,2.42
2023-08-15T23:26:31.961Z,2.13
2023-08-15T23:27:33.907Z,2.13
2023-08-15T23:28:36.296Z,2.70
2023-08-15T23:30:40.316Z,2.17
2023-08-15T23:31:42.437Z,2.17
2023-08-15T23:32:44.777Z,2.25
2023-08-15T23:34:48.630Z,2.40
2023-08-15T23:35:50.576Z,2.22
2023-08-15T23:36:54.501Z,2.30
2023-08-15T23:37:56.475Z,2.22
2023-08-15T23:38:58.757Z,2.63
2023-08-15T23:41:02.529Z,2.30
2023-08-15T23:42:04.479Z,2.28
2023-08-15T23:43:06.992Z,2.38
2023-08-15T23:44:09.639Z,2.22
2023-08-15T23:45:12.633Z,2.17
2023-08-15T23:46:16.342Z,2.65
2023-08-15T23:47:18.315Z,2.33
2023-08-15T23:48:20.230Z,2.60
2023-08-15T23:49:22.137Z,2.50
2023-08-15T23:50:24.142Z,2.10
2023-08-15T23:51:26.109Z,2.30
2023-08-15T23:52:27.969Z,2.78
2023-08-15T23:53:30.312Z,2.67
2023-08-15T23:55:34.253Z,2.40
2023-08-15T23:56:36.195Z,2.17
2023-08-15T23:57:38.256Z,2.20
2023-08-15T23:58:40.159Z,2.20
2023-08-15T23:59:42.171Z,2.47
